sensor_id;sensor_type;location;lat;lon;timestamp;temperature;humidity
4245;DHT22;2136;48.502;9.194;2023-05-24T00:00:08;16.30;85.00
4245;DHT22;2136;48.502;9.194;2023-05-24T00:02:37;16.30;84.40
4245;DHT22;2136;48.502;9.194;2023-05-24T00:05:07;16.40;85.70
4245;DHT22;2136;48.502;9.194;2023-05-24T00:07:35;16.30;86.80
4245;DHT22;2136;48.502;9.194;2023-05-24T00:10:02;16.20;85.80
4245;DHT22;2136;48.502;9.194;2023-05-24T00:12:29;16.20;85.60
4245;DHT22;2136;48.502;9.194;2023-05-24T00:14:57;16.20;85.80
4245;DHT22;2136;48.502;9.194;2023-05-24T00:17:24;16.10;85.40
4245;DHT22;2136;48.502;9.194;2023-05-24T00:19:52;16.20;84.80
4245;DHT22;2136;48.502;9.194;2023-05-24T00:22:18;16.20;84.70
4245;DHT22;2136;48.502;9.194;2023-05-24T00:24:45;16.10;84.40
4245;DHT22;2136;48.502;9.194;2023-05-24T00:27:13;16.10;84.00
4245;DHT22;2136;48.502;9.194;2023-05-24T00:29:40;16.10;84.60
4245;DHT22;2136;48.502;9.194;2023-05-24T00:32:08;16.10;85.10
4245;DHT22;2136;48.502;9.194;2023-05-24T00:34:35;16.20;84.60
4245;DHT22;2136;48.502;9.194;2023-05-24T00:37:02;16.20;84.30
4245;DHT22;2136;48.502;9.194;2023-05-24T00:39:29;16.20;83.80
4245;DHT22;2136;48.502;9.194;2023-05-24T00:41:55;16.10;84.00
4245;DHT22;2136;48.502;9.194;2023-05-24T00:44:22;16.10;83.60
4245;DHT22;2136;48.502;9.194;2023-05-24T00:46:49;16.00;84.00
4245;DHT22;2136;48.502;9.194;2023-05-24T00:49:18;16.00;83.30
4245;DHT22;2136;48.502;9.194;2023-05-24T00:51:45;15.90;84.00
4245;DHT22;2136;48.502;9.194;2023-05-24T00:54:12;15.90;83.80
4245;DHT22;2136;48.502;9.194;2023-05-24T00:56:40;15.90;83.80
4245;DHT22;2136;48.502;9.194;2023-05-24T00:59:07;15.90;84.70
4245;DHT22;2136;48.502;9.194;2023-05-24T01:01:34;15.90;85.70
4245;DHT22;2136;48.502;9.194;2023-05-24T01:04:02;15.90;85.80
4245;DHT22;2136;48.502;9.194;2023-05-24T01:06:32;15.90;86.00
4245;DHT22;2136;48.502;9.194;2023-05-24T01:09:16;15.90;85.10
4245;DHT22;2136;48.502;9.194;2023-05-24T01:11:56;15.90;84.10
4245;DHT22;2136;48.502;9.194;2023-05-24T01:14:28;15.90;83.50
4245;DHT22;2136;48.502;9.194;2023-05-24T01:17:03;15.80;83.80
4245;DHT22;2136;48.502;9.194;2023-05-24T01:19:47;15.80;84.50
4245;DHT22;2136;48.502;9.194;2023-05-24T01:22:32;15.80;86.60
4245;DHT22;2136;48.502;9.194;2023-05-24T01:25:08;15.80;86.30
4245;DHT22;2136;48.502;9.194;2023-05-24T01:27:40;15.80;85.40
4245;DHT22;2136;48.502;9.194;2023-05-24T01:30:08;15.80;85.10
4245;DHT22;2136;48.502;9.194;2023-05-24T01:32:35;15.80;84.30
4245;DHT22;2136;48.502;9.194;2023-05-24T01:35:03;15.80;83.00
4245;DHT22;2136;48.502;9.194;2023-05-24T01:37:30;15.80;83.00
4245;DHT22;2136;48.502;9.194;2023-05-24T01:39:57;15.80;82.40
4245;DHT22;2136;48.502;9.194;2023-05-24T01:42:27;15.80;83.30
4245;DHT22;2136;48.502;9.194;2023-05-24T01:45:03;15.80;84.50
4245;DHT22;2136;48.502;9.194;2023-05-24T01:47:41;15.70;84.30
4245;DHT22;2136;48.502;9.194;2023-05-24T01:50:16;15.70;85.10
4245;DHT22;2136;48.502;9.194;2023-05-24T01:52:45;15.80;84.40
4245;DHT22;2136;48.502;9.194;2023-05-24T01:55:16;15.70;84.40
4245;DHT22;2136;48.502;9.194;2023-05-24T01:57:45;15.70;83.00
4245;DHT22;2136;48.502;9.194;2023-05-24T02:00:16;15.80;82.10
4245;DHT22;2136;48.502;9.194;2023-05-24T02:02:44;15.70;81.90
4245;DHT22;2136;48.502;9.194;2023-05-24T02:05:11;15.70;81.70
4245;DHT22;2136;48.502;9.194;2023-05-24T02:07:37;15.70;81.70
4245;DHT22;2136;48.502;9.194;2023-05-24T02:10:07;15.70;81.90
4245;DHT22;2136;48.502;9.194;2023-05-24T02:12:33;15.60;81.50
4245;DHT22;2136;48.502;9.194;2023-05-24T02:15:00;15.80;80.60
4245;DHT22;2136;48.502;9.194;2023-05-24T02:17:29;15.60;80.40
4245;DHT22;2136;48.502;9.194;2023-05-24T02:19:57;15.60;82.50
4245;DHT22;2136;48.502;9.194;2023-05-24T02:22:24;15.60;84.50
4245;DHT22;2136;48.502;9.194;2023-05-24T02:24:51;15.60;83.90
4245;DHT22;2136;48.502;9.194;2023-05-24T02:27:18;15.70;82.40
4245;DHT22;2136;48.502;9.194;2023-05-24T02:29:44;15.60;80.90
4245;DHT22;2136;48.502;9.194;2023-05-24T02:32:12;15.60;81.30
4245;DHT22;2136;48.502;9.194;2023-05-24T02:34:40;15.60;80.50
4245;DHT22;2136;48.502;9.194;2023-05-24T02:37:08;15.60;81.00
4245;DHT22;2136;48.502;9.194;2023-05-24T02:39:38;15.60;81.60
4245;DHT22;2136;48.502;9.194;2023-05-24T02:42:06;15.60;82.70
4245;DHT22;2136;48.502;9.194;2023-05-24T02:44:33;15.50;81.90
4245;DHT22;2136;48.502;9.194;2023-05-24T02:47:00;15.50;81.40
4245;DHT22;2136;48.502;9.194;2023-05-24T02:49:27;15.50;80.20
4245;DHT22;2136;48.502;9.194;2023-05-24T02:51:55;15.50;78.30
4245;DHT22;2136;48.502;9.194;2023-05-24T02:54:22;15.40;78.10
4245;DHT22;2136;48.502;9.194;2023-05-24T02:56:49;15.40;76.60
4245;DHT22;2136;48.502;9.194;2023-05-24T02:59:16;15.40;76.80
4245;DHT22;2136;48.502;9.194;2023-05-24T03:01:43;15.40;76.00
4245;DHT22;2136;48.502;9.194;2023-05-24T03:04:10;15.30;75.00
4245;DHT22;2136;48.502;9.194;2023-05-24T03:06:36;15.30;73.70
4245;DHT22;2136;48.502;9.194;2023-05-24T03:09:05;15.30;72.90
4245;DHT22;2136;48.502;9.194;2023-05-24T03:11:32;15.30;73.00
4245;DHT22;2136;48.502;9.194;2023-05-24T03:13:59;15.20;72.40
4245;DHT22;2136;48.502;9.194;2023-05-24T03:16:26;15.30;72.60
4245;DHT22;2136;48.502;9.194;2023-05-24T03:18:53;15.10;72.40
4245;DHT22;2136;48.502;9.194;2023-05-24T03:21:21;15.10;72.60
4245;DHT22;2136;48.502;9.194;2023-05-24T03:23:48;15.10;73.20
4245;DHT22;2136;48.502;9.194;2023-05-24T03:26:16;15.10;73.10
4245;DHT22;2136;48.502;9.194;2023-05-24T03:28:45;15.00;72.50
4245;DHT22;2136;48.502;9.194;2023-05-24T03:31:12;15.00;72.60
4245;DHT22;2136;48.502;9.194;2023-05-24T03:33:39;15.10;72.90
4245;DHT22;2136;48.502;9.194;2023-05-24T03:36:06;15.00;72.80
4245;DHT22;2136;48.502;9.194;2023-05-24T03:38:33;15.00;72.70
4245;DHT22;2136;48.502;9.194;2023-05-24T03:40:59;15.00;72.30
4245;DHT22;2136;48.502;9.194;2023-05-24T03:43:28;15.00;72.00
4245;DHT22;2136;48.502;9.194;2023-05-24T03:45:55;15.00;71.90
4245;DHT22;2136;48.502;9.194;2023-05-24T03:48:21;14.90;72.70
4245;DHT22;2136;48.502;9.194;2023-05-24T03:50:48;15.00;73.60
4245;DHT22;2136;48.502;9.194;2023-05-24T03:53:15;15.00;74.00
4245;DHT22;2136;48.502;9.194;2023-05-24T03:55:42;14.90;73.90
4245;DHT22;2136;48.502;9.194;2023-05-24T03:58:09;15.10;73.50
4245;DHT22;2136;48.502;9.194;2023-05-24T04:00:38;14.90;73.10
4245;DHT22;2136;48.502;9.194;2023-05-24T04:03:05;14.90;73.80
4245;DHT22;2136;48.502;9.194;2023-05-24T04:05:33;14.90;73.80
4245;DHT22;2136;48.502;9.194;2023-05-24T04:08:00;14.90;73.40
4245;DHT22;2136;48.502;9.194;2023-05-24T04:10:27;14.90;73.30
4245;DHT22;2136;48.502;9.194;2023-05-24T04:12:54;14.90;73.40
4245;DHT22;2136;48.502;9.194;2023-05-24T04:15:21;14.90;73.70
4245;DHT22;2136;48.502;9.194;2023-05-24T04:17:50;14.90;73.80
4245;DHT22;2136;48.502;9.194;2023-05-24T04:20:19;14.90;74.60
4245;DHT22;2136;48.502;9.194;2023-05-24T04:22:48;14.80;75.40
4245;DHT22;2136;48.502;9.194;2023-05-24T04:25:15;14.80;74.90
4245;DHT22;2136;48.502;9.194;2023-05-24T04:27:42;14.80;75.80
4245;DHT22;2136;48.502;9.194;2023-05-24T04:30:10;14.80;76.20
4245;DHT22;2136;48.502;9.194;2023-05-24T04:32:38;14.80;76.20
4245;DHT22;2136;48.502;9.194;2023-05-24T04:35:07;14.70;76.10
4245;DHT22;2136;48.502;9.194;2023-05-24T04:37:35;14.70;76.20
4245;DHT22;2136;48.502;9.194;2023-05-24T04:40:02;14.70;75.70
4245;DHT22;2136;48.502;9.194;2023-05-24T04:42:30;14.70;76.00
4245;DHT22;2136;48.502;9.194;2023-05-24T04:44:57;14.70;75.70
4245;DHT22;2136;48.502;9.194;2023-05-24T04:47:24;14.80;75.10
4245;DHT22;2136;48.502;9.194;2023-05-24T04:49:51;14.80;75.60
4245;DHT22;2136;48.502;9.194;2023-05-24T04:52:19;14.80;75.30
4245;DHT22;2136;48.502;9.194;2023-05-24T04:54:47;14.90;74.90
4245;DHT22;2136;48.502;9.194;2023-05-24T04:57:14;14.80;74.60
4245;DHT22;2136;48.502;9.194;2023-05-24T04:59:41;14.90;75.00
4245;DHT22;2136;48.502;9.194;2023-05-24T05:02:08;14.90;74.80
4245;DHT22;2136;48.502;9.194;2023-05-24T05:04:35;14.90;75.20
4245;DHT22;2136;48.502;9.194;2023-05-24T05:07:02;14.90;76.10
4245;DHT22;2136;48.502;9.194;2023-05-24T05:09:30;14.90;75.00
4245;DHT22;2136;48.502;9.194;2023-05-24T05:11:57;14.90;74.90
4245;DHT22;2136;48.502;9.194;2023-05-24T05:14:24;14.90;75.10
4245;DHT22;2136;48.502;9.194;2023-05-24T05:16:51;14.90;76.30
4245;DHT22;2136;48.502;9.194;2023-05-24T05:19:18;14.90;76.50
4245;DHT22;2136;48.502;9.194;2023-05-24T05:21:44;15.00;76.00
4245;DHT22;2136;48.502;9.194;2023-05-24T05:24:11;15.10;76.10
4245;DHT22;2136;48.502;9.194;2023-05-24T05:26:39;15.00;76.20
4245;DHT22;2136;48.502;9.194;2023-05-24T05:29:07;15.10;76.10
4245;DHT22;2136;48.502;9.194;2023-05-24T05:31:33;15.00;75.60
4245;DHT22;2136;48.502;9.194;2023-05-24T05:34:00;15.00;75.40
4245;DHT22;2136;48.502;9.194;2023-05-24T05:36:27;15.00;74.40
4245;DHT22;2136;48.502;9.194;2023-05-24T05:38:54;15.00;74.20
4245;DHT22;2136;48.502;9.194;2023-05-24T05:41:21;15.00;73.90
4245;DHT22;2136;48.502;9.194;2023-05-24T05:43:49;15.00;73.80
4245;DHT22;2136;48.502;9.194;2023-05-24T05:46:16;15.00;73.90
4245;DHT22;2136;48.502;9.194;2023-05-24T05:48:45;15.00;74.30
4245;DHT22;2136;48.502;9.194;2023-05-24T05:51:12;15.00;74.30
4245;DHT22;2136;48.502;9.194;2023-05-24T05:53:39;15.10;73.90
4245;DHT22;2136;48.502;9.194;2023-05-24T05:56:05;14.90;73.20
4245;DHT22;2136;48.502;9.194;2023-05-24T05:58:32;14.90;74.00
4245;DHT22;2136;48.502;9.194;2023-05-24T06:01:00;15.00;74.10
4245;DHT22;2136;48.502;9.194;2023-05-24T06:03:27;15.00;73.80
4245;DHT22;2136;48.502;9.194;2023-05-24T06:05:54;15.00;72.70
4245;DHT22;2136;48.502;9.194;2023-05-24T06:08:21;15.10;73.00
4245;DHT22;2136;48.502;9.194;2023-05-24T06:10:47;15.10;73.10
4245;DHT22;2136;48.502;9.194;2023-05-24T06:13:14;15.10;72.40
4245;DHT22;2136;48.502;9.194;2023-05-24T06:15:41;15.20;72.10
4245;DHT22;2136;48.502;9.194;2023-05-24T06:18:09;15.20;72.60
4245;DHT22;2136;48.502;9.194;2023-05-24T06:20:38;15.20;71.80
4245;DHT22;2136;48.502;9.194;2023-05-24T06:23:04;15.30;71.70
4245;DHT22;2136;48.502;9.194;2023-05-24T06:25:31;15.30;71.60
4245;DHT22;2136;48.502;9.194;2023-05-24T06:27:58;15.40;72.00
4245;DHT22;2136;48.502;9.194;2023-05-24T06:30:25;15.40;72.00
4245;DHT22;2136;48.502;9.194;2023-05-24T06:32:52;15.50;72.10
4245;DHT22;2136;48.502;9.194;2023-05-24T06:35:20;15.50;72.00
4245;DHT22;2136;48.502;9.194;2023-05-24T06:37:47;15.70;72.40
4245;DHT22;2136;48.502;9.194;2023-05-24T06:40:14;15.70;72.00
4245;DHT22;2136;48.502;9.194;2023-05-24T06:42:41;15.80;72.40
4245;DHT22;2136;48.502;9.194;2023-05-24T06:45:08;16.00;72.40
4245;DHT22;2136;48.502;9.194;2023-05-24T06:47:35;16.00;71.70
4245;DHT22;2136;48.502;9.194;2023-05-24T06:50:03;16.10;70.60
4245;DHT22;2136;48.502;9.194;2023-05-24T06:52:31;16.10;69.30
4245;DHT22;2136;48.502;9.194;2023-05-24T06:54:58;16.10;69.50
4245;DHT22;2136;48.502;9.194;2023-05-24T06:57:25;16.10;69.20
4245;DHT22;2136;48.502;9.194;2023-05-24T06:59:52;16.10;68.50
4245;DHT22;2136;48.502;9.194;2023-05-24T07:02:19;16.20;69.00
4245;DHT22;2136;48.502;9.194;2023-05-24T07:04:50;16.20;69.50
4245;DHT22;2136;48.502;9.194;2023-05-24T07:07:19;16.40;70.20
4245;DHT22;2136;48.502;9.194;2023-05-24T07:09:47;16.40;69.00
4245;DHT22;2136;48.502;9.194;2023-05-24T07:12:14;16.40;68.00
4245;DHT22;2136;48.502;9.194;2023-05-24T07:14:41;16.50;67.80
4245;DHT22;2136;48.502;9.194;2023-05-24T07:17:08;16.50;68.30
4245;DHT22;2136;48.502;9.194;2023-05-24T07:19:35;16.60;67.40
4245;DHT22;2136;48.502;9.194;2023-05-24T07:22:01;16.60;66.70
4245;DHT22;2136;48.502;9.194;2023-05-24T07:24:28;16.60;66.10
4245;DHT22;2136;48.502;9.194;2023-05-24T07:26:57;16.60;66.30
4245;DHT22;2136;48.502;9.194;2023-05-24T07:29:24;16.60;65.70
4245;DHT22;2136;48.502;9.194;2023-05-24T07:31:51;16.60;65.30
4245;DHT22;2136;48.502;9.194;2023-05-24T07:34:20;16.60;65.10
4245;DHT22;2136;48.502;9.194;2023-05-24T07:36:48;16.60;66.40
4245;DHT22;2136;48.502;9.194;2023-05-24T07:39:15;16.60;66.40
4245;DHT22;2136;48.502;9.194;2023-05-24T07:41:42;16.60;66.10
4245;DHT22;2136;48.502;9.194;2023-05-24T07:44:11;16.60;65.70
4245;DHT22;2136;48.502;9.194;2023-05-24T07:46:39;16.70;65.70
4245;DHT22;2136;48.502;9.194;2023-05-24T07:49:06;16.70;65.50
4245;DHT22;2136;48.502;9.194;2023-05-24T07:51:33;16.80;65.40
4245;DHT22;2136;48.502;9.194;2023-05-24T07:53:59;16.80;65.10
4245;DHT22;2136;48.502;9.194;2023-05-24T07:56:26;16.70;65.80
4245;DHT22;2136;48.502;9.194;2023-05-24T07:58:53;16.80;66.10
4245;DHT22;2136;48.502;9.194;2023-05-24T08:01:29;16.80;66.30
4245;DHT22;2136;48.502;9.194;2023-05-24T08:03:56;16.80;65.90
4245;DHT22;2136;48.502;9.194;2023-05-24T08:06:23;16.70;65.40
4245;DHT22;2136;48.502;9.194;2023-05-24T08:08:50;16.70;65.00
4245;DHT22;2136;48.502;9.194;2023-05-24T08:11:17;16.70;64.70
4245;DHT22;2136;48.502;9.194;2023-05-24T08:13:45;16.70;65.00
4245;DHT22;2136;48.502;9.194;2023-05-24T08:16:12;16.70;64.60
4245;DHT22;2136;48.502;9.194;2023-05-24T08:18:40;16.60;63.90
4245;DHT22;2136;48.502;9.194;2023-05-24T08:21:07;16.40;62.40
4245;DHT22;2136;48.502;9.194;2023-05-24T08:23:34;16.40;62.60
4245;DHT22;2136;48.502;9.194;2023-05-24T08:26:01;16.30;63.40
4245;DHT22;2136;48.502;9.194;2023-05-24T08:28:28;16.30;64.20
4245;DHT22;2136;48.502;9.194;2023-05-24T08:30:55;16.30;64.10
4245;DHT22;2136;48.502;9.194;2023-05-24T08:33:23;16.20;65.40
4245;DHT22;2136;48.502;9.194;2023-05-24T08:35:51;16.20;65.20
4245;DHT22;2136;48.502;9.194;2023-05-24T08:38:18;16.30;64.80
4245;DHT22;2136;48.502;9.194;2023-05-24T08:40:46;16.20;65.20
4245;DHT22;2136;48.502;9.194;2023-05-24T08:43:14;16.10;64.40
4245;DHT22;2136;48.502;9.194;2023-05-24T08:45:41;16.00;65.10
4245;DHT22;2136;48.502;9.194;2023-05-24T08:48:08;15.90;65.40
4245;DHT22;2136;48.502;9.194;2023-05-24T08:50:37;15.80;65.90
4245;DHT22;2136;48.502;9.194;2023-05-24T08:53:06;15.80;66.00
4245;DHT22;2136;48.502;9.194;2023-05-24T08:55:35;15.70;66.80
4245;DHT22;2136;48.502;9.194;2023-05-24T08:58:03;15.60;67.80
4245;DHT22;2136;48.502;9.194;2023-05-24T09:00:30;15.50;67.50
4245;DHT22;2136;48.502;9.194;2023-05-24T09:02:58;15.40;67.90
4245;DHT22;2136;48.502;9.194;2023-05-24T09:05:26;15.40;68.90
4245;DHT22;2136;48.502;9.194;2023-05-24T09:07:54;15.40;69.90
4245;DHT22;2136;48.502;9.194;2023-05-24T09:10:24;15.40;71.10
4245;DHT22;2136;48.502;9.194;2023-05-24T09:12:56;15.60;71.60
4245;DHT22;2136;48.502;9.194;2023-05-24T09:15:23;15.70;70.90
4245;DHT22;2136;48.502;9.194;2023-05-24T09:17:51;16.00;70.40
4245;DHT22;2136;48.502;9.194;2023-05-24T09:20:19;16.10;69.60
4245;DHT22;2136;48.502;9.194;2023-05-24T09:22:51;16.30;68.70
4245;DHT22;2136;48.502;9.194;2023-05-24T09:25:19;16.40;68.20
4245;DHT22;2136;48.502;9.194;2023-05-24T09:27:50;16.50;65.80
4245;DHT22;2136;48.502;9.194;2023-05-24T09:30:17;16.50;66.20
4245;DHT22;2136;48.502;9.194;2023-05-24T09:32:53;16.60;66.00
4245;DHT22;2136;48.502;9.194;2023-05-24T09:35:21;16.70;66.10
4245;DHT22;2136;48.502;9.194;2023-05-24T09:37:48;16.80;64.80
4245;DHT22;2136;48.502;9.194;2023-05-24T09:40:19;16.90;64.10
4245;DHT22;2136;48.502;9.194;2023-05-24T09:42:46;17.00;63.50
4245;DHT22;2136;48.502;9.194;2023-05-24T09:45:17;17.30;63.60
4245;DHT22;2136;48.502;9.194;2023-05-24T09:47:44;17.60;64.20
4245;DHT22;2136;48.502;9.194;2023-05-24T09:50:12;17.90;62.90
4245;DHT22;2136;48.502;9.194;2023-05-24T09:52:39;18.00;62.30
4245;DHT22;2136;48.502;9.194;2023-05-24T09:55:10;18.10;62.00
4245;DHT22;2136;48.502;9.194;2023-05-24T09:57:38;18.30;61.70
4245;DHT22;2136;48.502;9.194;2023-05-24T10:00:06;18.50;61.50
4245;DHT22;2136;48.502;9.194;2023-05-24T10:02:43;18.70;61.30
4245;DHT22;2136;48.502;9.194;2023-05-24T10:05:10;18.80;60.00
4245;DHT22;2136;48.502;9.194;2023-05-24T10:07:39;18.80;59.60
4245;DHT22;2136;48.502;9.194;2023-05-24T10:10:07;18.80;58.90
4245;DHT22;2136;48.502;9.194;2023-05-24T10:12:34;18.70;58.60
4245;DHT22;2136;48.502;9.194;2023-05-24T10:15:08;18.50;58.30
4245;DHT22;2136;48.502;9.194;2023-05-24T10:17:36;18.50;59.10
4245;DHT22;2136;48.502;9.194;2023-05-24T10:20:05;18.50;59.00
4245;DHT22;2136;48.502;9.194;2023-05-24T10:22:34;18.60;58.90
4245;DHT22;2136;48.502;9.194;2023-05-24T10:25:05;18.60;58.40
4245;DHT22;2136;48.502;9.194;2023-05-24T10:27:33;18.60;58.50
4245;DHT22;2136;48.502;9.194;2023-05-24T10:30:07;18.60;58.10
4245;DHT22;2136;48.502;9.194;2023-05-24T10:32:38;18.50;57.90
4245;DHT22;2136;48.502;9.194;2023-05-24T10:35:08;18.30;56.50
4245;DHT22;2136;48.502;9.194;2023-05-24T10:37:37;18.20;57.60
4245;DHT22;2136;48.502;9.194;2023-05-24T10:40:04;18.00;58.00
4245;DHT22;2136;48.502;9.194;2023-05-24T10:42:34;17.80;57.80
4245;DHT22;2136;48.502;9.194;2023-05-24T10:45:28;17.60;58.10
4245;DHT22;2136;48.502;9.194;2023-05-24T10:47:56;17.50;58.50
4245;DHT22;2136;48.502;9.194;2023-05-24T10:50:24;17.40;58.80
4245;DHT22;2136;48.502;9.194;2023-05-24T10:53:10;17.30;59.20
4245;DHT22;2136;48.502;9.194;2023-05-24T10:55:50;17.20;60.20
4245;DHT22;2136;48.502;9.194;2023-05-24T10:58:17;17.00;60.30
4245;DHT22;2136;48.502;9.194;2023-05-24T11:00:45;16.90;59.60
4245;DHT22;2136;48.502;9.194;2023-05-24T11:03:13;16.80;60.30
4245;DHT22;2136;48.502;9.194;2023-05-24T11:05:53;16.80;60.40
4245;DHT22;2136;48.502;9.194;2023-05-24T11:08:24;16.70;59.70
4245;DHT22;2136;48.502;9.194;2023-05-24T11:11:02;16.60;59.60
4245;DHT22;2136;48.502;9.194;2023-05-24T11:13:30;16.60;59.80
4245;DHT22;2136;48.502;9.194;2023-05-24T11:15:59;16.50;60.60
4245;DHT22;2136;48.502;9.194;2023-05-24T11:18:27;16.50;60.90
4245;DHT22;2136;48.502;9.194;2023-05-24T11:20:56;16.50;61.20
4245;DHT22;2136;48.502;9.194;2023-05-24T11:23:25;16.50;61.20
4245;DHT22;2136;48.502;9.194;2023-05-24T11:25:52;16.40;61.60
4245;DHT22;2136;48.502;9.194;2023-05-24T11:28:20;16.40;61.20
4245;DHT22;2136;48.502;9.194;2023-05-24T11:30:48;16.40;61.30
4245;DHT22;2136;48.502;9.194;2023-05-24T11:33:15;16.40;61.70
4245;DHT22;2136;48.502;9.194;2023-05-24T11:35:43;16.40;62.30
4245;DHT22;2136;48.502;9.194;2023-05-24T11:38:12;16.40;62.70
4245;DHT22;2136;48.502;9.194;2023-05-24T11:40:40;16.40;62.90
4245;DHT22;2136;48.502;9.194;2023-05-24T11:43:11;16.40;62.70
4245;DHT22;2136;48.502;9.194;2023-05-24T11:45:40;16.40;62.40
4245;DHT22;2136;48.502;9.194;2023-05-24T11:48:07;16.40;61.60
4245;DHT22;2136;48.502;9.194;2023-05-24T11:50:38;16.40;63.20
4245;DHT22;2136;48.502;9.194;2023-05-24T11:53:05;16.40;63.30
4245;DHT22;2136;48.502;9.194;2023-05-24T11:55:36;16.40;63.50
4245;DHT22;2136;48.502;9.194;2023-05-24T11:58:06;16.30;62.90
4245;DHT22;2136;48.502;9.194;2023-05-24T12:00:36;16.30;63.10
4245;DHT22;2136;48.502;9.194;2023-05-24T12:03:03;16.30;63.50
4245;DHT22;2136;48.502;9.194;2023-05-24T12:05:32;16.40;62.50
4245;DHT22;2136;48.502;9.194;2023-05-24T12:08:01;16.40;62.50
4245;DHT22;2136;48.502;9.194;2023-05-24T12:10:31;16.40;63.00
4245;DHT22;2136;48.502;9.194;2023-05-24T12:12:59;16.40;62.90
4245;DHT22;2136;48.502;9.194;2023-05-24T12:15:26;16.40;62.20
4245;DHT22;2136;48.502;9.194;2023-05-24T12:17:53;16.50;61.70
4245;DHT22;2136;48.502;9.194;2023-05-24T12:20:21;16.40;62.80
4245;DHT22;2136;48.502;9.194;2023-05-24T12:22:48;16.40;63.30
4245;DHT22;2136;48.502;9.194;2023-05-24T12:25:16;16.50;63.40
4245;DHT22;2136;48.502;9.194;2023-05-24T12:27:44;16.50;62.80
4245;DHT22;2136;48.502;9.194;2023-05-24T12:30:15;16.50;63.70
4245;DHT22;2136;48.502;9.194;2023-05-24T12:32:46;16.50;63.70
4245;DHT22;2136;48.502;9.194;2023-05-24T12:35:13;16.50;63.30
4245;DHT22;2136;48.502;9.194;2023-05-24T12:37:42;16.60;63.70
4245;DHT22;2136;48.502;9.194;2023-05-24T12:40:16;16.70;62.10
4245;DHT22;2136;48.502;9.194;2023-05-24T12:42:45;16.80;62.30
4245;DHT22;2136;48.502;9.194;2023-05-24T12:45:16;16.90;61.90
4245;DHT22;2136;48.502;9.194;2023-05-24T12:47:48;16.90;62.50
4245;DHT22;2136;48.502;9.194;2023-05-24T12:50:16;17.00;61.80
4245;DHT22;2136;48.502;9.194;2023-05-24T12:52:43;17.20;61.50
4245;DHT22;2136;48.502;9.194;2023-05-24T12:55:11;17.30;61.30
4245;DHT22;2136;48.502;9.194;2023-05-24T12:57:38;17.50;61.20
4245;DHT22;2136;48.502;9.194;2023-05-24T13:00:06;17.70;61.50
4245;DHT22;2136;48.502;9.194;2023-05-24T13:02:34;18.00;61.00
4245;DHT22;2136;48.502;9.194;2023-05-24T13:05:01;18.20;60.20
4245;DHT22;2136;48.502;9.194;2023-05-24T13:07:51;18.40;58.80
4245;DHT22;2136;48.502;9.194;2023-05-24T13:10:18;18.50;57.40
4245;DHT22;2136;48.502;9.194;2023-05-24T13:12:45;18.70;57.20
4245;DHT22;2136;48.502;9.194;2023-05-24T13:15:12;18.80;57.00
4245;DHT22;2136;48.502;9.194;2023-05-24T13:17:39;19.10;57.10
4245;DHT22;2136;48.502;9.194;2023-05-24T13:20:07;19.20;56.20
4245;DHT22;2136;48.502;9.194;2023-05-24T13:22:36;19.30;55.60
4245;DHT22;2136;48.502;9.194;2023-05-24T13:25:06;19.30;53.70
4245;DHT22;2136;48.502;9.194;2023-05-24T13:27:34;19.20;53.30
4245;DHT22;2136;48.502;9.194;2023-05-24T13:30:01;19.00;52.10
4245;DHT22;2136;48.502;9.194;2023-05-24T13:32:29;18.90;51.60
4245;DHT22;2136;48.502;9.194;2023-05-24T13:34:56;18.80;53.00
4245;DHT22;2136;48.502;9.194;2023-05-24T13:37:23;18.80;53.60
4245;DHT22;2136;48.502;9.194;2023-05-24T13:39:50;18.80;54.00
4245;DHT22;2136;48.502;9.194;2023-05-24T13:42:19;18.80;54.50
4245;DHT22;2136;48.502;9.194;2023-05-24T13:44:46;18.90;54.60
4245;DHT22;2136;48.502;9.194;2023-05-24T13:47:13;19.10;55.10
4245;DHT22;2136;48.502;9.194;2023-05-24T13:49:44;19.20;54.20
4245;DHT22;2136;48.502;9.194;2023-05-24T13:52:11;19.40;55.50
4245;DHT22;2136;48.502;9.194;2023-05-24T13:54:38;19.50;53.60
4245;DHT22;2136;48.502;9.194;2023-05-24T13:57:04;19.50;53.70
4245;DHT22;2136;48.502;9.194;2023-05-24T13:59:33;19.70;54.60
4245;DHT22;2136;48.502;9.194;2023-05-24T14:01:59;19.80;52.80
4245;DHT22;2136;48.502;9.194;2023-05-24T14:04:26;19.80;52.00
4245;DHT22;2136;48.502;9.194;2023-05-24T14:06:55;19.90;50.00
4245;DHT22;2136;48.502;9.194;2023-05-24T14:09:21;20.00;46.90
4245;DHT22;2136;48.502;9.194;2023-05-24T14:11:50;20.50;48.30
4245;DHT22;2136;48.502;9.194;2023-05-24T14:14:17;21.00;45.80
4245;DHT22;2136;48.502;9.194;2023-05-24T14:16:45;21.10;48.70
4245;DHT22;2136;48.502;9.194;2023-05-24T14:19:16;21.00;49.50
4245;DHT22;2136;48.502;9.194;2023-05-24T14:21:43;20.80;49.80
4245;DHT22;2136;48.502;9.194;2023-05-24T14:24:10;20.60;47.90
4245;DHT22;2136;48.502;9.194;2023-05-24T14:26:36;20.40;47.20
4245;DHT22;2136;48.502;9.194;2023-05-24T14:29:05;20.50;48.00
4245;DHT22;2136;48.502;9.194;2023-05-24T14:31:32;20.40;48.80
4245;DHT22;2136;48.502;9.194;2023-05-24T14:34:01;20.50;49.40
4245;DHT22;2136;48.502;9.194;2023-05-24T14:36:28;20.50;48.70
4245;DHT22;2136;48.502;9.194;2023-05-24T14:38:56;20.50;48.40
4245;DHT22;2136;48.502;9.194;2023-05-24T14:41:22;20.50;49.10
4245;DHT22;2136;48.502;9.194;2023-05-24T14:43:49;20.40;48.70
4245;DHT22;2136;48.502;9.194;2023-05-24T14:46:16;20.30;48.60
4245;DHT22;2136;48.502;9.194;2023-05-24T14:48:43;20.10;48.80
4245;DHT22;2136;48.502;9.194;2023-05-24T14:51:12;19.90;49.10
4245;DHT22;2136;48.502;9.194;2023-05-24T14:53:38;19.80;49.90
4245;DHT22;2136;48.502;9.194;2023-05-24T14:56:05;19.70;49.20
4245;DHT22;2136;48.502;9.194;2023-05-24T14:58:34;19.40;49.00
4245;DHT22;2136;48.502;9.194;2023-05-24T15:01:01;19.20;49.00
4245;DHT22;2136;48.502;9.194;2023-05-24T15:03:28;19.00;49.10
4245;DHT22;2136;48.502;9.194;2023-05-24T15:05:55;18.90;49.50
4245;DHT22;2136;48.502;9.194;2023-05-24T15:08:23;18.70;50.00
4245;DHT22;2136;48.502;9.194;2023-05-24T15:10:50;18.50;49.40
4245;DHT22;2136;48.502;9.194;2023-05-24T15:13:17;18.50;50.80
4245;DHT22;2136;48.502;9.194;2023-05-24T15:15:47;18.50;52.40
4245;DHT22;2136;48.502;9.194;2023-05-24T15:18:14;18.50;51.60
4245;DHT22;2136;48.502;9.194;2023-05-24T15:20:41;18.50;50.60
4245;DHT22;2136;48.502;9.194;2023-05-24T15:23:08;18.40;50.20
4245;DHT22;2136;48.502;9.194;2023-05-24T15:25:36;18.40;50.40
4245;DHT22;2136;48.502;9.194;2023-05-24T15:28:03;18.20;49.70
4245;DHT22;2136;48.502;9.194;2023-05-24T15:30:30;18.00;49.70
4245;DHT22;2136;48.502;9.194;2023-05-24T15:32:56;18.00;49.90
4245;DHT22;2136;48.502;9.194;2023-05-24T15:35:23;17.70;49.10
4245;DHT22;2136;48.502;9.194;2023-05-24T15:37:51;17.70;50.60
4245;DHT22;2136;48.502;9.194;2023-05-24T15:40:18;17.70;50.50
4245;DHT22;2136;48.502;9.194;2023-05-24T15:42:47;17.90;51.40
4245;DHT22;2136;48.502;9.194;2023-05-24T15:45:14;18.20;51.20
4245;DHT22;2136;48.502;9.194;2023-05-24T15:47:41;18.30;49.90
4245;DHT22;2136;48.502;9.194;2023-05-24T15:50:09;18.30;49.90
4245;DHT22;2136;48.502;9.194;2023-05-24T15:52:36;18.50;50.30
4245;DHT22;2136;48.502;9.194;2023-05-24T15:55:03;18.80;49.40
4245;DHT22;2136;48.502;9.194;2023-05-24T15:57:30;19.00;49.40
4245;DHT22;2136;48.502;9.194;2023-05-24T15:59:58;19.30;48.70
4245;DHT22;2136;48.502;9.194;2023-05-24T16:02:25;19.60;48.50
4245;DHT22;2136;48.502;9.194;2023-05-24T16:04:54;19.90;49.40
4245;DHT22;2136;48.502;9.194;2023-05-24T16:07:21;20.20;48.50